createdAt,value
2023-04-04T00:00:40.167Z,3.90
2023-04-04T00:03:08.047Z,3.80
2023-04-04T00:05:36.435Z,3.20
2023-04-04T00:08:07.468Z,2.90
2023-04-04T00:10:34.754Z,3.60
2023-04-04T00:13:03.204Z,3.70
2023-04-04T00:15:34.924Z,3.70
2023-04-04T00:18:04.240Z,3.70
2023-04-04T00:20:32.076Z,3.60
2023-04-04T00:22:59.549Z,3.60
2023-04-04T00:25:26.745Z,3.70
2023-04-04T00:28:01.095Z,3.60
2023-04-04T00:30:29.667Z,3.50
2023-04-04T00:32:58.367Z,3.40
2023-04-04T00:35:26.112Z,3.30
2023-04-04T00:37:53.630Z,3.40
2023-04-04T00:40:20.981Z,3.30
2023-04-04T00:42:48.501Z,3.30
2023-04-04T00:45:16.511Z,3.30
2023-04-04T00:47:44.507Z,3.20
2023-04-04T00:50:12.502Z,3.30
2023-04-04T00:52:40.093Z,2.20
2023-04-04T00:55:08.439Z,3.20
2023-04-04T00:57:36.305Z,3.10
2023-04-04T01:00:06.729Z,3.10
2023-04-04T01:02:34.296Z,2.00
2023-04-04T01:05:03.950Z,3.20
2023-04-04T01:07:32.418Z,3.10
2023-04-04T01:10:01.516Z,3.10
2023-04-04T01:12:29.618Z,3.10
2023-04-04T01:14:57.526Z,2.90
2023-04-04T01:17:26.145Z,2.90
2023-04-04T01:20:16.870Z,3.20
2023-04-04T01:22:52.078Z,3.00
2023-04-04T01:25:26.377Z,3.00
2023-04-04T01:27:56.971Z,3.00
2023-04-04T01:30:26.193Z,2.90
2023-04-04T01:33:06.746Z,2.80
2023-04-04T01:35:52.730Z,2.80
2023-04-04T01:39:03.045Z,2.70
2023-04-04T01:41:35.483Z,2.60
2023-04-04T01:44:04.298Z,2.70
2023-04-04T01:46:32.532Z,2.70
2023-04-04T01:49:00.577Z,2.70
2023-04-04T01:51:32.102Z,2.70
2023-04-04T01:53:59.729Z,2.60
2023-04-04T01:56:27.610Z,2.70
2023-04-04T01:58:55.570Z,2.80
2023-04-04T02:01:23.247Z,2.50
2023-04-04T02:03:50.469Z,2.70
2023-04-04T02:06:20.907Z,2.60
2023-04-04T02:08:48.337Z,2.60
2023-04-04T02:11:15.980Z,2.40
2023-04-04T02:13:44.592Z,2.50
2023-04-04T02:16:15.807Z,2.50
2023-04-04T02:18:43.226Z,2.50
2023-04-04T02:21:10.913Z,2.50
2023-04-04T02:23:39.244Z,2.40
2023-04-04T02:26:06.756Z,2.40
2023-04-04T02:28:34.340Z,2.40
2023-04-04T02:31:02.625Z,2.30
2023-04-04T02:33:30.532Z,2.40
2023-04-04T02:36:00.376Z,2.60
2023-04-04T02:38:29.356Z,2.50
2023-04-04T02:40:56.715Z,2.50
2023-04-04T02:43:24.198Z,2.30
2023-04-04T02:45:52.614Z,2.40
2023-04-04T02:48:23.141Z,2.50
2023-04-04T02:50:52.875Z,2.40
2023-04-04T02:53:20.423Z,2.40
2023-04-04T02:55:50.426Z,2.40
2023-04-04T02:58:18.164Z,2.40
2023-04-04T03:00:47.379Z,2.30
2023-04-04T03:03:15.236Z,2.10
2023-04-04T03:05:45.752Z,2.30
2023-04-04T03:08:13.070Z,1.60
2023-04-04T03:10:40.808Z,2.30
2023-04-04T03:13:08.576Z,2.20
2023-04-04T03:15:38.449Z,2.20
2023-04-04T03:18:06.118Z,2.30
2023-04-04T03:20:34.774Z,2.30
2023-04-04T03:23:01.989Z,2.30
2023-04-04T03:25:29.232Z,2.20
2023-04-04T03:27:57.477Z,2.30
2023-04-04T03:30:27.320Z,2.20
2023-04-04T03:32:55.945Z,2.20
2023-04-04T03:35:23.218Z,1.80
2023-04-04T03:37:50.910Z,2.20
2023-04-04T03:40:19.418Z,2.10
2023-04-04T03:42:47.324Z,2.10
2023-04-04T03:45:19.625Z,2.10
2023-04-04T03:47:49.770Z,2.00
2023-04-04T03:50:17.737Z,1.90
2023-04-04T03:52:50.946Z,2.00
2023-04-04T03:55:19.207Z,1.90
2023-04-04T03:57:47.298Z,1.90
2023-04-04T04:00:19.685Z,1.70
2023-04-04T04:02:47.155Z,1.90
2023-04-04T04:05:14.628Z,1.90
2023-04-04T04:07:44.829Z,1.90
2023-04-04T04:10:14.434Z,1.90
2023-04-04T04:12:42.009Z,2.00
2023-04-04T04:15:10.245Z,0.50
2023-04-04T04:17:40.991Z,1.90
2023-04-04T04:20:10.468Z,1.90
2023-04-04T04:22:54.031Z,1.80
2023-04-04T04:25:22.156Z,1.90
2023-04-04T04:28:08.554Z,1.80
2023-04-04T04:30:36.860Z,1.30
2023-04-04T04:33:04.635Z,1.90
2023-04-04T04:35:42.185Z,1.80
2023-04-04T04:38:11.155Z,1.90
2023-04-04T04:40:40.145Z,1.70
2023-04-04T04:43:18.569Z,1.60
2023-04-04T04:45:47.420Z,2.00
2023-04-04T04:48:17.216Z,1.90
2023-04-04T04:50:49.058Z,1.90
2023-04-04T04:53:24.958Z,1.60
2023-04-04T04:55:54.359Z,1.90
2023-04-04T04:58:25.017Z,1.90
2023-04-04T05:00:58.537Z,1.90
2023-04-04T05:03:33.878Z,1.90
2023-04-04T05:06:02.509Z,1.90
2023-04-04T05:08:32.417Z,2.20
2023-04-04T05:11:23.042Z,1.00
2023-04-04T05:13:50.730Z,2.10
2023-04-04T05:16:18.240Z,2.10
2023-04-04T05:18:47.745Z,1.80
2023-04-04T05:21:15.483Z,1.20
2023-04-04T05:23:45.334Z,1.80
2023-04-04T05:26:15.564Z,1.90
2023-04-04T05:28:43.504Z,2.20
2023-04-04T05:31:11.487Z,2.20
2023-04-04T05:33:38.696Z,2.20
2023-04-04T05:36:25.607Z,2.30
2023-04-04T05:38:58.389Z,2.20
2023-04-04T05:41:30.387Z,2.30
2023-04-04T05:44:03.250Z,1.40
2023-04-04T05:46:30.995Z,2.30
2023-04-04T05:48:58.480Z,2.40
2023-04-04T05:51:26.524Z,1.40
2023-04-04T05:54:01.454Z,2.60
2023-04-04T05:56:33.532Z,2.40
2023-04-04T05:59:03.282Z,2.50
2023-04-04T06:01:34.490Z,2.50
2023-04-04T06:04:08.591Z,2.60
2023-04-04T06:06:36.764Z,2.80
2023-04-04T06:09:05.418Z,2.90
2023-04-04T06:11:36.238Z,3.10
2023-04-04T06:14:08.361Z,3.50
2023-04-04T06:16:37.254Z,3.20
2023-04-04T06:19:07.013Z,3.20
2023-04-04T06:21:34.343Z,3.20
2023-04-04T06:24:02.148Z,3.30
2023-04-04T06:26:29.523Z,3.10
2023-04-04T06:28:57.785Z,3.10
2023-04-04T06:31:31.529Z,3.20
2023-04-04T06:34:05.015Z,3.10
2023-04-04T06:36:36.736Z,3.20
2023-04-04T06:39:05.005Z,3.20
2023-04-04T06:41:32.733Z,3.20
2023-04-04T06:44:00.733Z,3.30
2023-04-04T08:06:50.449Z,5.80
2023-04-04T08:09:17.798Z,6.20
2023-04-04T08:11:45.992Z,5.70
2023-04-04T08:14:13.375Z,5.80
2023-04-04T08:16:41.717Z,6.00
2023-04-04T08:19:08.967Z,4.70
2023-04-04T08:21:36.089Z,5.90
2023-04-04T08:24:03.426Z,5.60
2023-04-04T08:26:30.888Z,5.80
2023-04-04T08:28:58.378Z,5.90
2023-04-04T08:31:25.931Z,4.90
2023-04-04T08:33:53.502Z,5.90
2023-04-04T08:36:20.945Z,6.10
2023-04-04T08:38:49.712Z,6.10
2023-04-04T08:41:19.953Z,6.70
2023-04-04T08:43:54.647Z,6.80
2023-04-04T08:46:25.726Z,6.80
2023-04-04T08:48:53.885Z,6.60
2023-04-04T08:51:22.877Z,6.30
2023-04-04T08:53:50.296Z,6.50
2023-04-04T08:56:17.700Z,6.40
2023-04-04T08:58:44.905Z,6.60
2023-04-04T09:01:12.345Z,6.50
2023-04-04T09:03:40.282Z,6.40
2023-04-04T09:06:08.190Z,6.10
2023-04-04T09:08:35.577Z,6.40
2023-04-04T09:11:05.842Z,6.60
2023-04-04T09:13:32.956Z,6.70
2023-04-04T09:16:01.252Z,6.70
2023-04-04T09:18:31.382Z,6.90
2023-04-04T09:20:58.443Z,6.70
2023-04-04T09:23:25.848Z,6.80
2023-04-04T09:28:25.615Z,7.00
2023-04-04T09:30:53.947Z,6.70
2023-04-04T09:33:27.099Z,6.70
2023-04-04T09:36:07.821Z,6.70
2023-04-04T09:38:45.709Z,6.70
2023-04-04T09:41:18.977Z,6.60
2023-04-04T09:43:46.867Z,6.70
2023-04-04T09:46:16.147Z,6.80
2023-04-04T09:48:50.363Z,6.70
2023-04-04T09:51:17.632Z,7.10
2023-04-04T09:53:48.427Z,7.40
2023-04-04T09:56:15.961Z,7.40
2023-04-04T10:01:18.443Z,7.60
2023-04-04T10:03:53.622Z,7.50
2023-04-04T10:06:24.200Z,7.50
2023-04-04T10:08:51.966Z,7.90
2023-04-04T10:11:33.506Z,7.60
2023-04-04T10:14:02.874Z,7.70
2023-04-04T10:16:37.236Z,7.50
2023-04-04T10:19:09.927Z,7.50
2023-04-04T10:21:37.236Z,7.80
2023-04-04T10:24:10.099Z,7.60
2023-04-04T10:26:37.812Z,7.40
2023-04-04T10:29:06.113Z,7.80
2023-04-04T10:31:39.413Z,8.00
2023-04-04T10:34:20.839Z,7.80
2023-04-04T10:37:13.115Z,8.20
2023-04-04T10:39:51.397Z,7.90
2023-04-04T10:42:19.854Z,8.10
2023-04-04T10:44:51.310Z,8.10
2023-04-04T10:47:26.356Z,8.20
2023-04-04T10:49:54.366Z,7.90
2023-04-04T10:52:24.285Z,7.90
2023-04-04T10:54:55.533Z,7.30
2023-04-04T10:57:23.432Z,8.40
2023-04-04T11:00:07.151Z,8.00
2023-04-04T11:02:46.191Z,8.10
2023-04-04T11:05:23.038Z,8.10
2023-04-04T11:08:08.672Z,8.20
2023-04-04T11:10:46.065Z,8.40
2023-04-04T11:13:35.272Z,8.60
2023-04-04T11:16:07.718Z,8.30
2023-04-04T11:18:45.921Z,8.10
2023-04-04T11:21:25.138Z,8.40
2023-04-04T11:23:52.231Z,8.60
2023-04-04T11:26:34.708Z,9.00
2023-04-04T11:29:08.820Z,9.10
2023-04-04T11:31:45.766Z,9.10
2023-04-04T11:34:30.886Z,9.10
2023-04-04T11:37:01.956Z,9.00
2023-04-04T11:39:33.842Z,8.90
2023-04-04T11:42:16.660Z,9.00
2023-04-04T11:44:50.756Z,9.30
2023-04-04T11:47:25.330Z,8.80
2023-04-04T11:49:56.294Z,9.30
2023-04-04T11:52:26.407Z,8.80
2023-04-04T11:54:53.555Z,8.80
2023-04-04T11:57:21.935Z,9.00
2023-04-04T11:59:51.106Z,8.60
2023-04-04T12:02:27.779Z,9.00
2023-04-04T12:04:56.227Z,9.20
2023-04-04T12:07:24.828Z,9.30
2023-04-04T12:09:52.505Z,9.30
2023-04-04T12:12:20.126Z,9.10
2023-04-04T12:14:49.123Z,9.10
2023-04-04T12:17:17.077Z,9.10
2023-04-04T12:19:44.823Z,9.30
2023-04-04T12:22:12.049Z,9.30
2023-04-04T12:24:39.330Z,9.00
2023-04-04T12:27:07.366Z,9.10
2023-04-04T12:29:38.637Z,9.00
2023-04-04T12:32:07.798Z,9.10
2023-04-04T12:34:43.041Z,9.10
2023-04-04T12:37:11.954Z,9.00
2023-04-04T12:40:06.438Z,8.90
2023-04-04T12:42:35.948Z,8.90
2023-04-04T12:45:04.527Z,8.90
2023-04-04T12:47:32.719Z,9.20
2023-04-04T12:50:00.022Z,9.20
2023-04-04T12:52:33.072Z,8.90
2023-04-04T12:55:10.342Z,9.40
2023-04-04T12:57:40.134Z,9.20
2023-04-04T13:00:09.341Z,9.30
2023-04-04T13:02:39.258Z,9.30
2023-04-04T13:05:07.938Z,9.20
2023-04-04T13:07:43.641Z,9.20
2023-04-04T13:10:15.039Z,8.90
2023-04-04T13:13:01.724Z,8.90
2023-04-04T13:15:49.290Z,9.10
2023-04-04T13:18:24.812Z,9.30
2023-04-04T13:20:53.364Z,9.40
2023-04-04T13:23:21.679Z,9.80
2023-04-04T13:25:48.965Z,10.00
2023-04-04T13:28:16.271Z,10.00
2023-04-04T13:30:49.901Z,9.90
2023-04-04T13:33:18.849Z,9.70
2023-04-04T13:35:46.691Z,9.70
2023-04-04T13:38:13.920Z,9.90
2023-04-04T13:40:41.256Z,9.80
2023-04-04T13:43:08.920Z,9.80
2023-04-04T13:45:36.159Z,10.00
2023-04-04T13:48:04.330Z,10.00
2023-04-04T13:50:33.094Z,10.00
2023-04-04T13:53:00.121Z,9.90
2023-04-04T13:55:28.041Z,9.90
2023-04-04T13:57:55.216Z,10.00
2023-04-04T14:00:23.187Z,10.00
2023-04-04T14:02:53.633Z,9.90
2023-04-04T14:05:22.455Z,9.80
2023-04-04T14:07:49.826Z,9.70
2023-04-04T14:10:17.223Z,9.80
2023-04-04T14:12:44.284Z,9.80
2023-04-04T14:15:12.432Z,9.80
2023-04-04T14:17:39.996Z,9.80
2023-04-04T14:20:09.048Z,9.80
2023-04-04T14:22:36.535Z,9.90
2023-04-04T14:25:05.246Z,10.00
2023-04-04T14:27:32.521Z,9.70
2023-04-04T14:29:59.727Z,9.60
2023-04-04T14:32:27.589Z,9.60
2023-04-04T14:34:54.651Z,9.60
2023-04-04T14:37:22.345Z,9.60
2023-04-04T14:39:49.859Z,9.70
2023-04-04T14:42:18.203Z,9.50
2023-04-04T14:44:45.557Z,9.60
2023-04-04T14:47:12.717Z,9.50
2023-04-04T14:49:39.883Z,9.50
2023-04-04T14:52:06.985Z,9.50
2023-04-04T14:54:34.136Z,9.50
2023-04-04T14:57:02.448Z,9.40
2023-04-04T14:59:29.973Z,9.30
2023-04-04T15:01:57.864Z,9.30
2023-04-04T15:04:25.257Z,9.30
2023-04-04T15:06:53.689Z,9.30
2023-04-04T15:09:21.748Z,9.30
2023-04-04T15:11:50.107Z,9.20
2023-04-04T15:14:17.275Z,9.10
2023-04-04T15:16:44.416Z,9.30
2023-04-04T15:19:13.856Z,9.30
2023-04-04T15:21:41.038Z,9.30
2023-04-04T15:24:08.361Z,9.20
2023-04-04T15:26:35.603Z,9.20
2023-04-04T15:29:02.747Z,9.10
2023-04-04T15:31:31.689Z,8.90
2023-04-04T15:34:01.931Z,9.00
2023-04-04T15:36:29.211Z,9.00
2023-04-04T15:38:56.738Z,8.90
2023-04-04T15:41:24.214Z,8.90
2023-04-04T15:43:51.639Z,9.00
2023-04-04T15:46:19.015Z,8.90
2023-04-04T15:48:48.134Z,8.70
2023-04-04T15:51:15.861Z,8.90
2023-04-04T15:53:43.121Z,8.90
2023-04-04T15:56:10.956Z,8.50
2023-04-04T15:58:38.722Z,8.70
2023-04-04T16:01:09.676Z,8.70
2023-04-04T16:03:37.111Z,8.70
2023-04-04T16:06:08.607Z,8.80
2023-04-04T16:08:35.893Z,8.70
2023-04-04T16:11:06.144Z,8.60
2023-04-04T16:13:33.398Z,8.00
2023-04-04T16:16:00.698Z,8.60
2023-04-04T16:18:28.181Z,8.60
2023-04-04T16:20:55.253Z,8.50
2023-04-04T16:23:22.370Z,8.50
2023-04-04T16:25:49.391Z,8.40
2023-04-04T16:28:16.657Z,8.40
2023-04-04T16:30:43.777Z,8.30
2023-04-04T16:33:11.016Z,8.20
2023-04-04T16:35:39.592Z,8.10
2023-04-04T16:38:07.072Z,8.20
2023-04-04T16:40:34.492Z,7.90
2023-04-04T16:43:01.643Z,7.90
2023-04-04T16:45:28.797Z,7.90
2023-04-04T16:47:56.125Z,7.80
2023-04-04T16:50:23.479Z,7.30
2023-04-04T16:52:50.536Z,7.70
2023-04-04T16:55:17.631Z,7.60
2023-04-04T16:57:46.535Z,7.60
2023-04-04T17:00:14.458Z,7.50
2023-04-04T17:02:47.413Z,7.50
2023-04-04T17:05:15.503Z,7.40
2023-04-04T17:07:42.842Z,7.40
2023-04-04T17:10:10.773Z,7.30
2023-04-04T17:12:39.299Z,7.20
2023-04-04T17:15:07.739Z,7.20
2023-04-04T17:17:34.937Z,7.10
2023-04-04T17:20:02.810Z,7.00
2023-04-04T17:22:31.870Z,7.10
2023-04-04T17:24:59.148Z,6.80
2023-04-04T17:27:26.221Z,6.80
2023-04-04T17:29:53.405Z,6.80
2023-04-04T17:32:20.880Z,6.70
2023-04-04T17:34:47.964Z,6.70
2023-04-04T17:37:15.323Z,6.70
2023-04-04T17:39:45.280Z,6.60
2023-04-04T17:42:12.926Z,6.60
2023-04-04T17:44:41.899Z,6.60
2023-04-04T17:47:08.926Z,6.60
2023-04-04T17:49:36.745Z,6.70
2023-04-04T17:52:08.272Z,6.60
2023-04-04T17:54:36.518Z,6.60
2023-04-04T17:57:04.088Z,6.60
2023-04-04T17:59:32.215Z,6.50
2023-04-04T18:02:00.169Z,6.50
2023-04-04T18:04:27.482Z,6.40
2023-04-04T18:06:55.111Z,6.40
2023-04-04T18:09:24.189Z,6.40
2023-04-04T18:11:54.542Z,6.30
2023-04-04T18:14:22.336Z,6.30
2023-04-04T18:16:49.752Z,6.20
2023-04-04T18:19:17.142Z,6.20
2023-04-04T18:21:48.364Z,6.10
2023-04-04T18:24:16.088Z,6.00
2023-04-04T18:26:45.462Z,6.00
2023-04-04T18:29:15.687Z,6.10
2023-04-04T18:31:43.925Z,6.00
2023-04-04T18:34:15.129Z,6.00
2023-04-04T18:36:42.840Z,6.00
2023-04-04T18:39:10.062Z,5.90
2023-04-04T18:41:37.775Z,5.80
2023-04-04T18:44:05.026Z,5.80
2023-04-04T18:46:32.683Z,5.80
2023-04-04T18:49:00.273Z,5.80
2023-04-04T18:51:27.810Z,5.70
2023-04-04T18:53:55.487Z,5.70
2023-04-04T18:56:22.592Z,5.70
2023-04-04T18:58:50.564Z,5.70
2023-04-04T19:01:18.190Z,5.50
2023-04-04T19:03:51.657Z,5.50
2023-04-04T19:06:19.154Z,5.50
2023-04-04T19:08:51.177Z,5.40
2023-04-04T19:11:20.710Z,5.30
2023-04-04T19:13:48.700Z,5.20
2023-04-04T19:16:18.774Z,5.10
2023-04-04T19:18:47.004Z,4.90
2023-04-04T19:21:14.611Z,5.00
2023-04-04T19:23:43.857Z,5.00
2023-04-04T19:26:16.911Z,5.10
2023-04-04T19:28:46.826Z,4.90
2023-04-04T19:31:22.790Z,4.80
2023-04-04T19:33:51.788Z,4.70
2023-04-04T19:36:20.125Z,4.60
2023-04-04T19:38:51.905Z,4.70
2023-04-04T19:41:23.195Z,4.70
2023-04-04T19:43:50.854Z,4.60
2023-04-04T19:46:26.869Z,4.50
2023-04-04T19:48:59.043Z,4.50
2023-04-04T19:51:27.612Z,4.50
2023-04-04T19:53:56.624Z,4.40
2023-04-04T19:56:26.581Z,3.80
2023-04-04T19:58:59.455Z,4.50
2023-04-04T20:01:33.641Z,4.40
2023-04-04T20:04:11.329Z,4.30
2023-04-04T20:06:40.139Z,4.30
2023-04-04T20:09:30.374Z,4.20
2023-04-04T20:11:58.052Z,4.20
2023-04-04T20:14:25.937Z,4.20
2023-04-04T20:16:53.899Z,4.20
2023-04-04T20:19:24.607Z,4.20
2023-04-04T20:21:52.251Z,4.10
2023-04-04T20:24:19.590Z,4.00
2023-04-04T20:26:59.478Z,4.00
2023-04-04T20:29:27.849Z,4.00
2023-04-04T20:32:03.454Z,4.00
2023-04-04T20:34:46.832Z,4.10
2023-04-04T20:37:25.188Z,4.00
2023-04-04T20:39:59.264Z,3.90
2023-04-04T20:42:29.793Z,3.90
2023-04-04T20:45:11.267Z,3.90
2023-04-04T20:47:47.026Z,3.80
2023-04-04T20:50:17.616Z,3.80
2023-04-04T20:52:47.577Z,3.70
2023-04-04T20:55:14.846Z,3.70
2023-04-04T20:57:41.889Z,3.70
2023-04-04T21:00:36.732Z,3.70
2023-04-04T21:03:25.190Z,3.70
2023-04-04T21:05:54.694Z,3.70
2023-04-04T21:08:36.085Z,3.60
2023-04-04T21:11:03.957Z,3.70
2023-04-04T21:13:36.906Z,4.20
2023-04-04T21:16:11.682Z,3.50
2023-04-04T21:18:40.663Z,3.50
2023-04-04T21:21:17.042Z,3.50
2023-04-04T21:23:53.167Z,3.50
2023-04-04T21:26:38.225Z,3.50
2023-04-04T21:29:07.917Z,3.50
2023-04-04T21:31:37.269Z,3.50
2023-04-04T21:34:08.649Z,3.50
2023-04-04T21:36:35.751Z,3.40
2023-04-04T21:39:26.865Z,3.40
2023-04-04T21:41:57.978Z,3.20
2023-04-04T21:44:26.374Z,3.40
2023-04-04T21:46:56.882Z,3.20
2023-04-04T21:49:25.413Z,3.10
2023-04-04T21:51:52.786Z,3.20
2023-04-04T21:54:20.321Z,3.20
2023-04-04T21:56:47.691Z,3.20
2023-04-04T21:59:15.026Z,3.10
2023-04-04T22:01:42.211Z,3.10
2023-04-04T22:04:09.419Z,2.00
2023-04-04T22:06:36.715Z,3.00
2023-04-04T22:09:04.397Z,3.10
2023-04-04T22:11:34.604Z,3.00
2023-04-04T22:14:07.427Z,3.00
2023-04-04T22:16:40.377Z,4.00
2023-04-04T22:19:11.510Z,3.50
2023-04-04T22:21:39.379Z,2.90
2023-04-04T22:24:06.842Z,3.00
2023-04-04T22:26:34.313Z,3.00
2023-04-04T22:29:03.589Z,3.00
2023-04-04T22:31:31.250Z,3.00
2023-04-04T22:33:58.414Z,3.00
2023-04-04T22:36:25.505Z,3.10
2023-04-04T22:39:02.095Z,3.00
2023-04-04T22:41:30.183Z,2.90
2023-04-04T22:43:58.299Z,3.00
2023-04-04T22:46:26.745Z,3.90
2023-04-04T22:49:06.083Z,2.50
2023-04-04T22:51:45.399Z,2.90
2023-04-04T22:54:15.121Z,3.30
2023-04-04T22:56:42.390Z,3.10
2023-04-04T22:59:09.746Z,3.00
2023-04-04T23:01:36.923Z,3.00
2023-04-04T23:04:04.349Z,3.00
2023-04-04T23:06:31.577Z,3.00
2023-04-04T23:08:59.156Z,2.90
2023-04-04T23:11:27.587Z,3.00
2023-04-04T23:13:57.140Z,1.90
2023-04-04T23:16:26.418Z,2.90
2023-04-04T23:18:53.786Z,2.80
2023-04-04T23:21:22.046Z,2.70
2023-04-04T23:23:49.419Z,2.70
2023-04-04T23:26:16.657Z,2.60
2023-04-04T23:28:43.659Z,2.70
2023-04-04T23:31:10.930Z,2.80
2023-04-04T23:33:38.115Z,2.80
2023-04-04T23:36:05.633Z,2.70
2023-04-04T23:38:32.733Z,2.80
2023-04-04T23:40:59.775Z,2.70
2023-04-04T23:43:26.846Z,2.60
2023-04-04T23:45:54.088Z,2.70
2023-04-04T23:48:21.529Z,2.70
2023-04-04T23:50:50.274Z,2.60
2023-04-04T23:53:17.515Z,2.60
2023-04-04T23:55:44.681Z,2.70
2023-04-04T23:58:11.915Z,2.70
